sensor_id;sensor_type;location;lat;lon;timestamp;temperature;humidity
34768;DHT22;21755;43.608;1.236;2023-04-02T00:00:25;7.10;99.90
34768;DHT22;21755;43.608;1.236;2023-04-02T00:05:26;7.10;99.90
34768;DHT22;21755;43.608;1.236;2023-04-02T00:08:01;7.10;99.90
34768;DHT22;21755;43.608;1.236;2023-04-02T00:10:29;7.20;99.90
34768;DHT22;21755;43.608;1.236;2023-04-02T00:12:59;7.20;99.90
34768;DHT22;21755;43.608;1.236;2023-04-02T00:15:25;7.20;99.90
34768;DHT22;21755;43.608;1.236;2023-04-02T00:17:50;7.20;99.90
34768;DHT22;21755;43.608;1.236;2023-04-02T00:20:16;7.20;99.90
34768;DHT22;21755;43.608;1.236;2023-04-02T00:22:44;7.20;99.90
34768;DHT22;21755;43.608;1.236;2023-04-02T00:25:11;7.20;99.90
34768;DHT22;21755;43.608;1.236;2023-04-02T00:27:38;7.20;99.90
34768;DHT22;21755;43.608;1.236;2023-04-02T00:30:04;7.20;99.90
34768;DHT22;21755;43.608;1.236;2023-04-02T00:32:30;7.20;99.90
34768;DHT22;21755;43.608;1.236;2023-04-02T00:34:58;7.20;99.90
34768;DHT22;21755;43.608;1.236;2023-04-02T00:37:26;7.10;99.90
34768;DHT22;21755;43.608;1.236;2023-04-02T00:40:02;7.10;99.90
34768;DHT22;21755;43.608;1.236;2023-04-02T00:42:31;7.10;99.90
34768;DHT22;21755;43.608;1.236;2023-04-02T00:44:58;7.10;99.90
34768;DHT22;21755;43.608;1.236;2023-04-02T00:47:26;7.10;99.90
34768;DHT22;21755;43.608;1.236;2023-04-02T00:49:57;7.10;99.90
34768;DHT22;21755;43.608;1.236;2023-04-02T00:52:25;7.10;99.90
34768;DHT22;21755;43.608;1.236;2023-04-02T00:57:36;7.20;99.90
34768;DHT22;21755;43.608;1.236;2023-04-02T01:00:19;7.10;99.90
34768;DHT22;21755;43.608;1.236;2023-04-02T01:03:32;7.20;99.90
34768;DHT22;21755;43.608;1.236;2023-04-02T01:05:34;7.20;99.90
34768;DHT22;21755;43.608;1.236;2023-04-02T01:15:40;7.10;99.90
34768;DHT22;21755;43.608;1.236;2023-04-02T01:23:10;7.20;99.90
34768;DHT22;21755;43.608;1.236;2023-04-02T01:25:42;7.20;99.90
34768;DHT22;21755;43.608;1.236;2023-04-02T01:30:35;7.30;99.90
34768;DHT22;21755;43.608;1.236;2023-04-02T01:33:01;7.30;99.90
34768;DHT22;21755;43.608;1.236;2023-04-02T01:35:29;7.30;99.90
34768;DHT22;21755;43.608;1.236;2023-04-02T01:37:57;7.30;99.90
34768;DHT22;21755;43.608;1.236;2023-04-02T01:45:36;7.20;99.90
34768;DHT22;21755;43.608;1.236;2023-04-02T01:48:21;7.30;99.90
34768;DHT22;21755;43.608;1.236;2023-04-02T01:50:49;7.30;99.90
34768;DHT22;21755;43.608;1.236;2023-04-02T01:53:16;7.30;99.90
34768;DHT22;21755;43.608;1.236;2023-04-02T01:55:53;7.30;99.90
34768;DHT22;21755;43.608;1.236;2023-04-02T01:58:23;7.30;99.90
34768;DHT22;21755;43.608;1.236;2023-04-02T02:01:06;7.30;99.90
34768;DHT22;21755;43.608;1.236;2023-04-02T02:03:37;7.30;99.90
34768;DHT22;21755;43.608;1.236;2023-04-02T02:06:03;7.30;99.90
34768;DHT22;21755;43.608;1.236;2023-04-02T02:08:32;7.30;99.90
34768;DHT22;21755;43.608;1.236;2023-04-02T02:11:01;7.30;99.90
34768;DHT22;21755;43.608;1.236;2023-04-02T02:13:27;7.40;99.90
34768;DHT22;21755;43.608;1.236;2023-04-02T02:15:55;7.40;99.90
34768;DHT22;21755;43.608;1.236;2023-04-02T02:18:21;7.40;99.90
34768;DHT22;21755;43.608;1.236;2023-04-02T02:20:48;7.40;99.90
34768;DHT22;21755;43.608;1.236;2023-04-02T02:23:14;7.40;99.90
34768;DHT22;21755;43.608;1.236;2023-04-02T02:25:40;7.30;99.90
34768;DHT22;21755;43.608;1.236;2023-04-02T02:28:08;7.30;99.90
34768;DHT22;21755;43.608;1.236;2023-04-02T02:33:42;7.30;99.90
34768;DHT22;21755;43.608;1.236;2023-04-02T02:38:49;7.30;99.90
34768;DHT22;21755;43.608;1.236;2023-04-02T02:43:59;7.40;99.90
34768;DHT22;21755;43.608;1.236;2023-04-02T02:46:25;7.30;99.90
34768;DHT22;21755;43.608;1.236;2023-04-02T02:48:52;7.30;99.90
34768;DHT22;21755;43.608;1.236;2023-04-02T02:51:28;7.40;99.90
34768;DHT22;21755;43.608;1.236;2023-04-02T02:53:56;7.30;99.90
34768;DHT22;21755;43.608;1.236;2023-04-02T02:56:25;7.30;99.90
34768;DHT22;21755;43.608;1.236;2023-04-02T02:58:52;7.30;99.90
34768;DHT22;21755;43.608;1.236;2023-04-02T03:01:18;7.40;99.90
34768;DHT22;21755;43.608;1.236;2023-04-02T03:03:45;7.40;99.90
34768;DHT22;21755;43.608;1.236;2023-04-02T03:06:13;7.40;99.90
34768;DHT22;21755;43.608;1.236;2023-04-02T03:08:45;7.50;99.90
34768;DHT22;21755;43.608;1.236;2023-04-02T03:11:14;7.50;99.90
34768;DHT22;21755;43.608;1.236;2023-04-02T03:13:42;7.50;99.90
34768;DHT22;21755;43.608;1.236;2023-04-02T03:24:02;7.60;99.90
34768;DHT22;21755;43.608;1.236;2023-04-02T03:26:34;7.60;99.90
34768;DHT22;21755;43.608;1.236;2023-04-02T03:29:04;7.60;99.90
34768;DHT22;21755;43.608;1.236;2023-04-02T03:31:33;7.60;99.90
34768;DHT22;21755;43.608;1.236;2023-04-02T03:34:02;7.60;99.90
34768;DHT22;21755;43.608;1.236;2023-04-02T03:36:32;7.60;99.90
34768;DHT22;21755;43.608;1.236;2023-04-02T03:39:11;7.70;99.90
34768;DHT22;21755;43.608;1.236;2023-04-02T03:41:40;7.70;99.90
34768;DHT22;21755;43.608;1.236;2023-04-02T03:44:15;7.70;99.90
34768;DHT22;21755;43.608;1.236;2023-04-02T03:46:44;7.70;99.90
34768;DHT22;21755;43.608;1.236;2023-04-02T03:49:16;7.70;99.90
34768;DHT22;21755;43.608;1.236;2023-04-02T03:51:51;7.70;99.90
34768;DHT22;21755;43.608;1.236;2023-04-02T03:54:17;7.70;99.90
34768;DHT22;21755;43.608;1.236;2023-04-02T03:56:43;7.80;99.90
34768;DHT22;21755;43.608;1.236;2023-04-02T04:04:25;7.80;99.90
34768;DHT22;21755;43.608;1.236;2023-04-02T04:06:51;7.80;99.90
34768;DHT22;21755;43.608;1.236;2023-04-02T04:11:54;7.80;99.90
34768;DHT22;21755;43.608;1.236;2023-04-02T04:14:27;7.80;99.90
34768;DHT22;21755;43.608;1.236;2023-04-02T04:19:27;7.80;99.90
34768;DHT22;21755;43.608;1.236;2023-04-02T04:22:09;7.80;99.90
34768;DHT22;21755;43.608;1.236;2023-04-02T04:24:35;7.80;99.90
34768;DHT22;21755;43.608;1.236;2023-04-02T04:27:07;7.90;99.90
34768;DHT22;21755;43.608;1.236;2023-04-02T04:32:26;7.80;99.90
34768;DHT22;21755;43.608;1.236;2023-04-02T04:35:18;7.80;99.90
34768;DHT22;21755;43.608;1.236;2023-04-02T04:37:42;7.80;99.90
34768;DHT22;21755;43.608;1.236;2023-04-02T04:42:43;7.80;99.90
34768;DHT22;21755;43.608;1.236;2023-04-02T04:47:58;7.80;99.90
34768;DHT22;21755;43.608;1.236;2023-04-02T04:53:03;7.80;99.90
34768;DHT22;21755;43.608;1.236;2023-04-02T04:55:33;7.80;99.90
34768;DHT22;21755;43.608;1.236;2023-04-02T04:58:02;7.80;99.90
34768;DHT22;21755;43.608;1.236;2023-04-02T05:05:30;7.80;99.90
34768;DHT22;21755;43.608;1.236;2023-04-02T05:08:02;7.80;99.90
34768;DHT22;21755;43.608;1.236;2023-04-02T05:11:04;7.80;99.90
34768;DHT22;21755;43.608;1.236;2023-04-02T05:16:09;7.80;99.90
34768;DHT22;21755;43.608;1.236;2023-04-02T05:21:14;7.90;99.90
34768;DHT22;21755;43.608;1.236;2023-04-02T05:31:39;7.90;99.90
34768;DHT22;21755;43.608;1.236;2023-04-02T05:34:07;7.90;99.90
34768;DHT22;21755;43.608;1.236;2023-04-02T05:36:34;8.00;99.90
34768;DHT22;21755;43.608;1.236;2023-04-02T05:39:00;8.00;99.90
34768;DHT22;21755;43.608;1.236;2023-04-02T05:41:27;8.00;99.90
34768;DHT22;21755;43.608;1.236;2023-04-02T05:44:11;8.00;99.90
34768;DHT22;21755;43.608;1.236;2023-04-02T05:46:44;8.00;99.90
34768;DHT22;21755;43.608;1.236;2023-04-02T05:52:01;8.00;99.90
34768;DHT22;21755;43.608;1.236;2023-04-02T05:54:30;8.10;99.90
34768;DHT22;21755;43.608;1.236;2023-04-02T05:57:06;8.10;99.90
34768;DHT22;21755;43.608;1.236;2023-04-02T05:59:37;8.10;99.90
34768;DHT22;21755;43.608;1.236;2023-04-02T06:02:24;8.20;99.90
34768;DHT22;21755;43.608;1.236;2023-04-02T06:04:56;8.10;99.90
34768;DHT22;21755;43.608;1.236;2023-04-02T06:07:24;8.20;99.90
34768;DHT22;21755;43.608;1.236;2023-04-02T06:09:54;8.20;99.90
34768;DHT22;21755;43.608;1.236;2023-04-02T06:12:23;8.20;99.90
34768;DHT22;21755;43.608;1.236;2023-04-02T06:14:50;8.20;99.90
34768;DHT22;21755;43.608;1.236;2023-04-02T06:17:17;8.20;99.90
34768;DHT22;21755;43.608;1.236;2023-04-02T06:19:44;8.30;99.90
34768;DHT22;21755;43.608;1.236;2023-04-02T06:24:46;8.40;99.90
34768;DHT22;21755;43.608;1.236;2023-04-02T06:27:15;8.40;99.90
34768;DHT22;21755;43.608;1.236;2023-04-02T06:29:50;8.40;99.90
34768;DHT22;21755;43.608;1.236;2023-04-02T06:32:17;8.40;99.90
34768;DHT22;21755;43.608;1.236;2023-04-02T06:34:45;8.50;99.90
34768;DHT22;21755;43.608;1.236;2023-04-02T06:37:31;8.50;99.90
34768;DHT22;21755;43.608;1.236;2023-04-02T06:39:58;8.60;99.90
34768;DHT22;21755;43.608;1.236;2023-04-02T06:42:30;8.60;99.90
34768;DHT22;21755;43.608;1.236;2023-04-02T06:44:57;8.60;99.90
34768;DHT22;21755;43.608;1.236;2023-04-02T06:47:25;8.70;99.90
34768;DHT22;21755;43.608;1.236;2023-04-02T06:50:37;8.70;99.90
34768;DHT22;21755;43.608;1.236;2023-04-02T06:52:47;8.70;99.90
34768;DHT22;21755;43.608;1.236;2023-04-02T06:55:25;8.70;99.90
34768;DHT22;21755;43.608;1.236;2023-04-02T06:57:51;8.70;99.90
34768;DHT22;21755;43.608;1.236;2023-04-02T07:00:22;8.70;99.90
34768;DHT22;21755;43.608;1.236;2023-04-02T07:02:49;8.80;99.90
34768;DHT22;21755;43.608;1.236;2023-04-02T07:05:16;8.80;99.90
34768;DHT22;21755;43.608;1.236;2023-04-02T07:07:41;8.80;99.90
34768;DHT22;21755;43.608;1.236;2023-04-02T07:10:07;8.90;99.90
34768;DHT22;21755;43.608;1.236;2023-04-02T07:12:33;8.90;99.90
34768;DHT22;21755;43.608;1.236;2023-04-02T07:14:59;8.90;99.90
34768;DHT22;21755;43.608;1.236;2023-04-02T07:17:33;9.00;99.90
34768;DHT22;21755;43.608;1.236;2023-04-02T07:19:59;9.00;99.90
34768;DHT22;21755;43.608;1.236;2023-04-02T07:22:25;9.00;99.90
34768;DHT22;21755;43.608;1.236;2023-04-02T07:24:51;9.00;99.90
34768;DHT22;21755;43.608;1.236;2023-04-02T07:27:16;9.10;99.90
34768;DHT22;21755;43.608;1.236;2023-04-02T07:29:42;9.10;99.90
34768;DHT22;21755;43.608;1.236;2023-04-02T07:32:09;9.10;99.90
34768;DHT22;21755;43.608;1.236;2023-04-02T07:34:36;9.20;99.90
34768;DHT22;21755;43.608;1.236;2023-04-02T07:37:01;9.10;99.90
34768;DHT22;21755;43.608;1.236;2023-04-02T07:39:28;9.20;99.90
34768;DHT22;21755;43.608;1.236;2023-04-02T07:41:54;9.20;99.90
34768;DHT22;21755;43.608;1.236;2023-04-02T07:44:20;9.20;99.90
34768;DHT22;21755;43.608;1.236;2023-04-02T07:46:46;9.20;99.90
34768;DHT22;21755;43.608;1.236;2023-04-02T07:49:12;9.30;99.90
34768;DHT22;21755;43.608;1.236;2023-04-02T07:51:37;9.30;99.90
34768;DHT22;21755;43.608;1.236;2023-04-02T07:54:03;9.30;99.90
34768;DHT22;21755;43.608;1.236;2023-04-02T07:56:29;9.40;99.90
34768;DHT22;21755;43.608;1.236;2023-04-02T07:58:54;9.40;99.90
34768;DHT22;21755;43.608;1.236;2023-04-02T08:01:21;9.40;99.90
34768;DHT22;21755;43.608;1.236;2023-04-02T08:03:51;9.40;99.90
34768;DHT22;21755;43.608;1.236;2023-04-02T08:06:17;9.40;99.90
34768;DHT22;21755;43.608;1.236;2023-04-02T08:08:42;9.40;99.90
34768;DHT22;21755;43.608;1.236;2023-04-02T08:11:08;9.50;99.90
34768;DHT22;21755;43.608;1.236;2023-04-02T08:13:34;9.50;99.90
34768;DHT22;21755;43.608;1.236;2023-04-02T08:16:01;9.60;99.90
34768;DHT22;21755;43.608;1.236;2023-04-02T08:18:27;9.60;99.90
34768;DHT22;21755;43.608;1.236;2023-04-02T08:20:53;9.70;99.90
34768;DHT22;21755;43.608;1.236;2023-04-02T08:23:19;9.70;99.90
34768;DHT22;21755;43.608;1.236;2023-04-02T08:25:46;9.90;99.90
34768;DHT22;21755;43.608;1.236;2023-04-02T08:28:12;10.10;99.90
34768;DHT22;21755;43.608;1.236;2023-04-02T08:30:38;10.20;99.90
34768;DHT22;21755;43.608;1.236;2023-04-02T08:33:03;10.20;99.90
34768;DHT22;21755;43.608;1.236;2023-04-02T08:35:29;10.30;99.90
34768;DHT22;21755;43.608;1.236;2023-04-02T08:37:55;10.40;99.90
34768;DHT22;21755;43.608;1.236;2023-04-02T08:40:26;10.40;99.90
34768;DHT22;21755;43.608;1.236;2023-04-02T08:43:04;10.40;99.90
34768;DHT22;21755;43.608;1.236;2023-04-02T08:45:35;10.50;99.90
34768;DHT22;21755;43.608;1.236;2023-04-02T08:48:04;10.60;99.90
34768;DHT22;21755;43.608;1.236;2023-04-02T08:50:35;10.60;99.90
34768;DHT22;21755;43.608;1.236;2023-04-02T08:53:02;10.70;99.90
34768;DHT22;21755;43.608;1.236;2023-04-02T08:58:00;10.90;99.90
34768;DHT22;21755;43.608;1.236;2023-04-02T09:00:32;10.80;99.90
34768;DHT22;21755;43.608;1.236;2023-04-02T09:03:00;10.60;99.90
34768;DHT22;21755;43.608;1.236;2023-04-02T09:05:31;10.60;99.90
34768;DHT22;21755;43.608;1.236;2023-04-02T09:07:58;10.70;99.90
34768;DHT22;21755;43.608;1.236;2023-04-02T09:10:25;11.00;99.90
34768;DHT22;21755;43.608;1.236;2023-04-02T09:12:55;11.20;99.90
34768;DHT22;21755;43.608;1.236;2023-04-02T09:15:32;11.00;99.90
34768;DHT22;21755;43.608;1.236;2023-04-02T09:17:59;11.00;99.90
34768;DHT22;21755;43.608;1.236;2023-04-02T09:20:28;11.00;99.90
34768;DHT22;21755;43.608;1.236;2023-04-02T09:22:54;11.00;99.90
34768;DHT22;21755;43.608;1.236;2023-04-02T09:25:21;10.80;99.90
34768;DHT22;21755;43.608;1.236;2023-04-02T09:27:48;10.60;99.90
34768;DHT22;21755;43.608;1.236;2023-04-02T09:33:00;10.40;99.90
34768;DHT22;21755;43.608;1.236;2023-04-02T09:35:28;10.50;99.90
34768;DHT22;21755;43.608;1.236;2023-04-02T09:38:16;10.50;99.90
34768;DHT22;21755;43.608;1.236;2023-04-02T09:45:36;10.50;99.90
34768;DHT22;21755;43.608;1.236;2023-04-02T09:48:02;10.60;99.90
34768;DHT22;21755;43.608;1.236;2023-04-02T09:50:39;10.70;99.90
34768;DHT22;21755;43.608;1.236;2023-04-02T09:55:58;11.20;99.90
34768;DHT22;21755;43.608;1.236;2023-04-02T09:58:31;11.20;99.90
34768;DHT22;21755;43.608;1.236;2023-04-02T10:00:57;11.00;99.90
34768;DHT22;21755;43.608;1.236;2023-04-02T10:03:26;10.90;99.90
34768;DHT22;21755;43.608;1.236;2023-04-02T10:06:07;10.90;99.90
34768;DHT22;21755;43.608;1.236;2023-04-02T10:08:33;10.90;99.90
34768;DHT22;21755;43.608;1.236;2023-04-02T10:11:05;10.90;99.90
34768;DHT22;21755;43.608;1.236;2023-04-02T10:13:55;10.90;99.90
34768;DHT22;21755;43.608;1.236;2023-04-02T10:16:20;10.90;99.90
34768;DHT22;21755;43.608;1.236;2023-04-02T10:18:48;11.30;99.90
34768;DHT22;21755;43.608;1.236;2023-04-02T10:21:20;11.70;99.90
34768;DHT22;21755;43.608;1.236;2023-04-02T10:23:47;11.70;99.90
34768;DHT22;21755;43.608;1.236;2023-04-02T10:26:37;11.60;99.90
34768;DHT22;21755;43.608;1.236;2023-04-02T10:34:35;11.70;99.90
34768;DHT22;21755;43.608;1.236;2023-04-02T10:37:19;11.90;99.90
34768;DHT22;21755;43.608;1.236;2023-04-02T10:39:50;11.80;99.90
34768;DHT22;21755;43.608;1.236;2023-04-02T10:42:28;11.90;99.90
34768;DHT22;21755;43.608;1.236;2023-04-02T10:47:59;12.00;99.90
34768;DHT22;21755;43.608;1.236;2023-04-02T10:50:47;12.10;99.90
34768;DHT22;21755;43.608;1.236;2023-04-02T10:53:17;12.10;99.90
34768;DHT22;21755;43.608;1.236;2023-04-02T10:55:51;12.10;99.90
34768;DHT22;21755;43.608;1.236;2023-04-02T10:58:22;12.30;99.90
34768;DHT22;21755;43.608;1.236;2023-04-02T11:00:49;12.30;99.90
34768;DHT22;21755;43.608;1.236;2023-04-02T11:05:51;12.20;99.90
34768;DHT22;21755;43.608;1.236;2023-04-02T11:10:45;12.40;99.90
34768;DHT22;21755;43.608;1.236;2023-04-02T11:13:13;12.60;99.90
34768;DHT22;21755;43.608;1.236;2023-04-02T11:15:40;12.60;99.90
34768;DHT22;21755;43.608;1.236;2023-04-02T11:18:18;12.60;99.90
34768;DHT22;21755;43.608;1.236;2023-04-02T11:23:21;12.60;99.90
34768;DHT22;21755;43.608;1.236;2023-04-02T11:25:51;12.40;99.90
34768;DHT22;21755;43.608;1.236;2023-04-02T11:28:37;12.30;99.90
34768;DHT22;21755;43.608;1.236;2023-04-02T11:31:02;12.40;99.90
34768;DHT22;21755;43.608;1.236;2023-04-02T11:36:00;12.60;99.90
34768;DHT22;21755;43.608;1.236;2023-04-02T11:40:55;12.70;99.90
34768;DHT22;21755;43.608;1.236;2023-04-02T11:48:29;13.30;99.90
34768;DHT22;21755;43.608;1.236;2023-04-02T11:50:56;13.20;99.90
34768;DHT22;21755;43.608;1.236;2023-04-02T11:53:30;13.20;99.90
34768;DHT22;21755;43.608;1.236;2023-04-02T11:58:44;12.60;99.90
34768;DHT22;21755;43.608;1.236;2023-04-02T12:03:55;12.10;99.90
34768;DHT22;21755;43.608;1.236;2023-04-02T12:11:39;12.60;99.90
34768;DHT22;21755;43.608;1.236;2023-04-02T12:16:49;13.00;99.90
34768;DHT22;21755;43.608;1.236;2023-04-02T12:19:15;13.30;99.90
34768;DHT22;21755;43.608;1.236;2023-04-02T12:21:43;13.40;99.90
34768;DHT22;21755;43.608;1.236;2023-04-02T12:24:29;13.10;99.90
34768;DHT22;21755;43.608;1.236;2023-04-02T12:29:54;12.80;99.90
34768;DHT22;21755;43.608;1.236;2023-04-02T12:32:27;13.00;99.90
34768;DHT22;21755;43.608;1.236;2023-04-02T12:34:53;13.20;99.90
34768;DHT22;21755;43.608;1.236;2023-04-02T12:37:21;13.10;99.90
34768;DHT22;21755;43.608;1.236;2023-04-02T12:39:51;12.60;99.90
34768;DHT22;21755;43.608;1.236;2023-04-02T12:42:24;12.40;99.90
34768;DHT22;21755;43.608;1.236;2023-04-02T12:44:51;12.20;99.90
34768;DHT22;21755;43.608;1.236;2023-04-02T12:47:17;12.20;99.90
34768;DHT22;21755;43.608;1.236;2023-04-02T12:49:42;12.30;99.90
34768;DHT22;21755;43.608;1.236;2023-04-02T12:52:15;12.60;99.90
34768;DHT22;21755;43.608;1.236;2023-04-02T12:54:45;12.90;99.90
34768;DHT22;21755;43.608;1.236;2023-04-02T12:59:57;13.20;99.90
34768;DHT22;21755;43.608;1.236;2023-04-02T13:02:25;13.20;99.90
34768;DHT22;21755;43.608;1.236;2023-04-02T13:04:55;12.80;99.90
34768;DHT22;21755;43.608;1.236;2023-04-02T13:07:22;12.70;99.90
34768;DHT22;21755;43.608;1.236;2023-04-02T13:09:50;12.70;99.90
34768;DHT22;21755;43.608;1.236;2023-04-02T13:14:58;12.70;99.90
34768;DHT22;21755;43.608;1.236;2023-04-02T13:23:23;12.70;99.90
34768;DHT22;21755;43.608;1.236;2023-04-02T13:25:49;13.10;99.90
34768;DHT22;21755;43.608;1.236;2023-04-02T13:28:15;13.40;99.90
34768;DHT22;21755;43.608;1.236;2023-04-02T13:30:40;13.40;99.90
34768;DHT22;21755;43.608;1.236;2023-04-02T13:33:06;13.50;99.90
34768;DHT22;21755;43.608;1.236;2023-04-02T13:35:32;13.60;99.90
34768;DHT22;21755;43.608;1.236;2023-04-02T13:37:58;13.60;99.90
34768;DHT22;21755;43.608;1.236;2023-04-02T13:40:27;13.60;99.90
34768;DHT22;21755;43.608;1.236;2023-04-02T13:42:53;13.80;99.90
34768;DHT22;21755;43.608;1.236;2023-04-02T13:45:23;13.80;99.90
34768;DHT22;21755;43.608;1.236;2023-04-02T13:47:50;13.60;99.90
34768;DHT22;21755;43.608;1.236;2023-04-02T13:50:16;13.60;99.90
34768;DHT22;21755;43.608;1.236;2023-04-02T13:52:42;13.50;99.90
34768;DHT22;21755;43.608;1.236;2023-04-02T13:55:08;13.50;99.90
34768;DHT22;21755;43.608;1.236;2023-04-02T13:57:35;13.70;99.90
34768;DHT22;21755;43.608;1.236;2023-04-02T14:00:01;13.70;99.90
34768;DHT22;21755;43.608;1.236;2023-04-02T14:02:26;14.00;99.90
34768;DHT22;21755;43.608;1.236;2023-04-02T14:05:40;13.80;99.90
34768;DHT22;21755;43.608;1.236;2023-04-02T14:10:21;13.40;99.90
34768;DHT22;21755;43.608;1.236;2023-04-02T14:15:19;13.10;99.90
34768;DHT22;21755;43.608;1.236;2023-04-02T14:33:16;12.00;99.90
34768;DHT22;21755;43.608;1.236;2023-04-02T14:35:44;12.00;99.90
34768;DHT22;21755;43.608;1.236;2023-04-02T14:38:25;12.10;99.90
34768;DHT22;21755;43.608;1.236;2023-04-02T14:40:56;12.30;99.90
34768;DHT22;21755;43.608;1.236;2023-04-02T14:43:25;12.40;99.90
34768;DHT22;21755;43.608;1.236;2023-04-02T14:48:26;12.60;99.90
34768;DHT22;21755;43.608;1.236;2023-04-02T14:50:56;12.60;99.90
34768;DHT22;21755;43.608;1.236;2023-04-02T14:53:24;12.70;99.90
34768;DHT22;21755;43.608;1.236;2023-04-02T14:55:51;12.90;99.90
34768;DHT22;21755;43.608;1.236;2023-04-02T14:58:18;13.00;99.90
34768;DHT22;21755;43.608;1.236;2023-04-02T15:00:51;13.10;99.90
34768;DHT22;21755;43.608;1.236;2023-04-02T15:03:22;13.10;99.90
34768;DHT22;21755;43.608;1.236;2023-04-02T15:05:56;13.00;99.90
34768;DHT22;21755;43.608;1.236;2023-04-02T15:08:26;13.10;99.90
34768;DHT22;21755;43.608;1.236;2023-04-02T15:10:55;13.00;99.90
34768;DHT22;21755;43.608;1.236;2023-04-02T15:13:24;12.90;99.90
34768;DHT22;21755;43.608;1.236;2023-04-02T15:15:55;12.60;99.90
34768;DHT22;21755;43.608;1.236;2023-04-02T15:18:22;12.50;99.90
34768;DHT22;21755;43.608;1.236;2023-04-02T15:25:46;12.20;99.90
34768;DHT22;21755;43.608;1.236;2023-04-02T15:30:40;11.90;99.90
34768;DHT22;21755;43.608;1.236;2023-04-02T15:35:51;11.70;99.90
34768;DHT22;21755;43.608;1.236;2023-04-02T15:38:21;11.60;99.90
34768;DHT22;21755;43.608;1.236;2023-04-02T15:41:03;11.50;99.90
34768;DHT22;21755;43.608;1.236;2023-04-02T15:46:08;11.50;99.90
34768;DHT22;21755;43.608;1.236;2023-04-02T15:51:10;11.50;99.90
34768;DHT22;21755;43.608;1.236;2023-04-02T15:54:00;11.50;99.90
34768;DHT22;21755;43.608;1.236;2023-04-02T15:56:36;11.50;99.90
34768;DHT22;21755;43.608;1.236;2023-04-02T15:59:09;11.40;99.90
34768;DHT22;21755;43.608;1.236;2023-04-02T16:09:42;11.10;99.90
34768;DHT22;21755;43.608;1.236;2023-04-02T16:12:08;11.00;99.90
34768;DHT22;21755;43.608;1.236;2023-04-02T16:14:35;11.00;99.90
34768;DHT22;21755;43.608;1.236;2023-04-02T16:17:03;10.90;99.90
34768;DHT22;21755;43.608;1.236;2023-04-02T16:19:33;10.90;99.90
34768;DHT22;21755;43.608;1.236;2023-04-02T16:22:04;10.90;99.90
34768;DHT22;21755;43.608;1.236;2023-04-02T16:24:32;10.90;99.90
34768;DHT22;21755;43.608;1.236;2023-04-02T16:27:06;11.00;99.90
34768;DHT22;21755;43.608;1.236;2023-04-02T16:29:52;10.90;99.90
34768;DHT22;21755;43.608;1.236;2023-04-02T16:35:03;10.80;99.90
34768;DHT22;21755;43.608;1.236;2023-04-02T16:37:51;10.60;99.90
34768;DHT22;21755;43.608;1.236;2023-04-02T16:48:28;10.60;99.90
34768;DHT22;21755;43.608;1.236;2023-04-02T16:51:00;10.60;99.90
34768;DHT22;21755;43.608;1.236;2023-04-02T16:53:34;10.60;99.90
34768;DHT22;21755;43.608;1.236;2023-04-02T17:06:07;10.80;99.90
34768;DHT22;21755;43.608;1.236;2023-04-02T17:11:05;10.80;99.90
34768;DHT22;21755;43.608;1.236;2023-04-02T17:13:41;10.70;99.90
34768;DHT22;21755;43.608;1.236;2023-04-02T17:18:36;10.80;99.90
34768;DHT22;21755;43.608;1.236;2023-04-02T17:21:04;10.90;99.90
34768;DHT22;21755;43.608;1.236;2023-04-02T17:23:30;10.80;99.90
34768;DHT22;21755;43.608;1.236;2023-04-02T17:25:57;10.80;99.90
34768;DHT22;21755;43.608;1.236;2023-04-02T17:28:25;10.90;99.90
34768;DHT22;21755;43.608;1.236;2023-04-02T17:30:57;10.80;99.90
34768;DHT22;21755;43.608;1.236;2023-04-02T17:33:24;10.80;99.90
34768;DHT22;21755;43.608;1.236;2023-04-02T17:35:55;10.80;99.90
34768;DHT22;21755;43.608;1.236;2023-04-02T17:38:33;10.80;99.90
34768;DHT22;21755;43.608;1.236;2023-04-02T17:46:34;10.70;99.90
34768;DHT22;21755;43.608;1.236;2023-04-02T17:52:00;10.60;99.90
34768;DHT22;21755;43.608;1.236;2023-04-02T17:57:23;10.60;99.90
34768;DHT22;21755;43.608;1.236;2023-04-02T18:08:08;10.50;99.90
34768;DHT22;21755;43.608;1.236;2023-04-02T18:10:54;10.50;99.90
34768;DHT22;21755;43.608;1.236;2023-04-02T18:13:34;10.50;99.90
34768;DHT22;21755;43.608;1.236;2023-04-02T18:16:03;10.40;99.90
34768;DHT22;21755;43.608;1.236;2023-04-02T18:18:39;10.40;99.90
34768;DHT22;21755;43.608;1.236;2023-04-02T18:21:26;10.40;99.90
34768;DHT22;21755;43.608;1.236;2023-04-02T18:29:17;10.40;99.90
34768;DHT22;21755;43.608;1.236;2023-04-02T18:47:07;10.30;99.90
34768;DHT22;21755;43.608;1.236;2023-04-02T18:49:40;10.30;99.90
34768;DHT22;21755;43.608;1.236;2023-04-02T18:52:11;10.30;99.90
34768;DHT22;21755;43.608;1.236;2023-04-02T18:54:44;10.20;99.90
34768;DHT22;21755;43.608;1.236;2023-04-02T18:57:14;10.20;99.90
34768;DHT22;21755;43.608;1.236;2023-04-02T19:02:15;10.10;99.90
34768;DHT22;21755;43.608;1.236;2023-04-02T19:04:57;10.10;99.90
34768;DHT22;21755;43.608;1.236;2023-04-02T19:07:24;10.10;99.90
34768;DHT22;21755;43.608;1.236;2023-04-02T19:09:52;10.10;99.90
34768;DHT22;21755;43.608;1.236;2023-04-02T19:12:20;10.00;99.90
34768;DHT22;21755;43.608;1.236;2023-04-02T19:14:48;10.10;99.90
34768;DHT22;21755;43.608;1.236;2023-04-02T19:22:46;10.10;99.90
34768;DHT22;21755;43.608;1.236;2023-04-02T19:27:56;10.10;99.90
34768;DHT22;21755;43.608;1.236;2023-04-02T19:33:38;10.10;99.90
34768;DHT22;21755;43.608;1.236;2023-04-02T19:41:30;10.10;99.90
34768;DHT22;21755;43.608;1.236;2023-04-02T19:43:59;10.10;99.90
34768;DHT22;21755;43.608;1.236;2023-04-02T19:46:25;10.10;99.90
34768;DHT22;21755;43.608;1.236;2023-04-02T19:51:16;10.10;99.90
34768;DHT22;21755;43.608;1.236;2023-04-02T19:53:42;10.10;99.90
34768;DHT22;21755;43.608;1.236;2023-04-02T19:56:08;10.10;99.90
34768;DHT22;21755;43.608;1.236;2023-04-02T19:58:34;10.10;99.90
34768;DHT22;21755;43.608;1.236;2023-04-02T20:01:00;10.00;99.90
34768;DHT22;21755;43.608;1.236;2023-04-02T20:03:26;10.00;99.90
34768;DHT22;21755;43.608;1.236;2023-04-02T20:05:52;10.00;99.90
34768;DHT22;21755;43.608;1.236;2023-04-02T20:08:18;10.00;99.90
34768;DHT22;21755;43.608;1.236;2023-04-02T20:10:44;10.00;99.90
34768;DHT22;21755;43.608;1.236;2023-04-02T20:13:10;9.90;99.90
34768;DHT22;21755;43.608;1.236;2023-04-02T20:15:35;9.90;99.90
34768;DHT22;21755;43.608;1.236;2023-04-02T20:18:01;9.80;99.90
34768;DHT22;21755;43.608;1.236;2023-04-02T20:20:27;9.80;99.90
34768;DHT22;21755;43.608;1.236;2023-04-02T20:22:52;9.80;99.90
34768;DHT22;21755;43.608;1.236;2023-04-02T20:25:18;9.80;99.90
34768;DHT22;21755;43.608;1.236;2023-04-02T20:27:44;9.70;99.90
34768;DHT22;21755;43.608;1.236;2023-04-02T20:30:09;9.70;99.90
34768;DHT22;21755;43.608;1.236;2023-04-02T20:32:35;9.70;99.90
34768;DHT22;21755;43.608;1.236;2023-04-02T20:35:01;9.70;99.90
34768;DHT22;21755;43.608;1.236;2023-04-02T20:37:27;9.70;99.90
34768;DHT22;21755;43.608;1.236;2023-04-02T20:39:53;9.70;99.90